Time;durP1;ratioP1;P1;durP2;ratioP2;P2;SDS_P1;SDS_P2;PMS_P1;PMS_P2;Temp;Humidity;BMP_temperature;BMP_pressure;BME280_temperature;BME280_humidity;BME280_pressure;Samples;Min_cycle;Max_cycle;Signal;HPM_P1;HPM_P2
2022/08/24 00:00:19;;;;;;;16.63;13.55;;;;;;;27.60;53.19;101754.34;5090387;28;20036;-66
2022/08/24 00:02:45;;;;;;;18.42;14.18;;;;;;;27.51;53.16;101754.31;5090533;28;20117;-66
2022/08/24 00:05:11;;;;;;;17.50;14.63;;;;;;;27.48;53.31;101760.44;5089954;28;20081;-66
2022/08/24 00:07:36;;;;;;;24.00;14.70;;;;;;;27.44;53.59;101755.91;5090294;28;20026;-67
2022/08/24 00:10:04;;;;;;;20.27;13.85;;;;;;;27.32;53.25;101756.41;5090908;28;20032;-68
2022/08/24 00:12:31;;;;;;;17.52;15.07;;;;;;;27.30;53.42;101758.69;5090533;28;20043;-66
2022/08/24 00:14:56;;;;;;;18.85;14.55;;;;;;;27.32;53.68;101756.41;5089904;28;20051;-66
2022/08/24 00:17:21;;;;;;;18.95;15.05;;;;;;;27.31;53.53;101762.25;5070252;28;20028;-67
2022/08/24 00:19:47;;;;;;;18.77;14.30;;;;;;;27.20;54.29;101758.97;5074471;28;20043;-67
2022/08/24 00:22:13;;;;;;;18.05;15.32;;;;;;;27.19;53.61;101764.78;5092870;28;20032;-67
2022/08/24 00:24:38;;;;;;;19.13;15.60;;;;;;;27.09;54.25;101767.78;5075492;28;20032;-67
2022/08/24 00:27:05;;;;;;;20.85;15.85;;;;;;;27.00;55.10;101766.91;5094365;28;20107;-67
2022/08/24 00:29:32;;;;;;;21.92;15.65;;;;;;;27.08;54.66;101775.25;5094003;28;20381;-66
2022/08/24 00:31:57;;;;;;;20.08;15.38;;;;;;;26.99;54.71;101777.13;5093585;28;20047;-67
2022/08/24 00:34:23;;;;;;;21.63;15.30;;;;;;;26.99;54.93;101776.31;5093222;28;20480;-67
2022/08/24 00:36:48;;;;;;;17.88;14.45;;;;;;;26.93;54.55;101773.66;5094502;28;20111;-67
2022/08/24 00:39:13;;;;;;;20.52;15.48;;;;;;;26.78;55.01;101782.31;5093794;28;20028;-65
2022/08/24 00:41:42;;;;;;;17.20;15.40;;;;;;;26.65;55.94;101777.59;5094104;28;20040;-66
2022/08/24 00:44:09;;;;;;;16.40;14.70;;;;;;;26.91;54.58;101778.69;5093501;28;20124;-66
2022/08/24 00:46:41;;;;;;;18.38;15.73;;;;;;;26.96;54.69;101780.53;5093351;28;20081;-67
2022/08/24 00:49:22;;;;;;;18.50;16.05;;;;;;;26.87;55.01;101782.38;5093719;28;20028;-66
2022/08/24 00:52:03;;;;;;;23.33;15.75;;;;;;;26.82;54.67;101774.22;5093727;28;20044;-65
2022/08/24 00:54:32;;;;;;;20.58;17.00;;;;;;;26.84;55.00;101780.25;5093184;28;20032;-67
2022/08/24 00:57:03;;;;;;;20.17;15.90;;;;;;;26.91;54.56;101777.88;5093530;28;20471;-65
2022/08/24 00:59:33;;;;;;;18.73;16.63;;;;;;;26.91;54.79;101778.69;5093270;28;20126;-67
2022/08/24 01:02:04;;;;;;;21.63;16.55;;;;;;;26.84;54.85;101775.56;5093212;28;20024;-66
2022/08/24 01:04:36;;;;;;;22.48;17.80;;;;;;;26.92;54.46;101780.34;5092938;28;20028;-66
2022/08/24 01:07:03;;;;;;;22.27;17.83;;;;;;;26.85;54.51;101779.94;5093396;28;20020;-65
2022/08/24 01:09:28;;;;;;;24.27;17.20;;;;;;;26.81;54.90;101780.88;5092698;28;20511;-68
2022/08/24 01:11:54;;;;;;;24.80;17.60;;;;;;;26.84;54.50;101771.97;5092857;28;20035;-66
2022/08/24 01:14:20;;;;;;;22.98;18.83;;;;;;;26.92;54.63;101772.06;5092274;28;20052;-68
2022/08/24 01:19:42;;;;;;;23.92;17.20;;;;;;;26.86;54.58;101769.72;5092961;28;20572;-67
2022/08/24 01:22:26;;;;;;;20.40;16.77;;;;;;;26.76;54.95;101772.72;5093129;28;20040;-68
2022/08/24 01:24:51;;;;;;;20.98;17.08;;;;;;;26.77;54.33;101768.84;5092584;28;20044;-66
2022/08/24 01:27:17;;;;;;;21.90;17.27;;;;;;;26.74;54.67;101770.25;5092634;28;20035;-67
2022/08/24 01:29:44;;;;;;;24.27;19.05;;;;;;;26.75;54.35;101776.59;5092184;28;20040;-66
2022/08/24 01:32:10;;;;;;;23.55;17.23;;;;;;;26.74;54.85;101772.19;5092245;28;20032;-65
2022/08/24 01:34:36;;;;;;;21.80;18.90;;;;;;;26.81;54.15;101773.41;5092352;28;20043;-68
2022/08/24 01:37:02;;;;;;;24.80;17.92;;;;;;;26.66;54.72;101767.38;5092683;28;20388;-68
2022/08/24 01:39:41;;;;;;;22.17;18.27;;;;;;;26.75;54.65;101776.59;5092045;28;20039;-67
2022/08/24 01:42:07;;;;;;;26.52;17.85;;;;;;;26.54;55.05;101773.44;5092299;28;20495;-67
2022/08/24 01:44:35;;;;;;;19.35;16.80;;;;;;;26.55;55.17;101783.38;5092205;28;20040;-67
2022/08/24 01:47:01;;;;;;;22.05;18.67;;;;;;;26.52;54.89;101777.63;5092118;28;20036;-67
2022/08/24 01:49:32;;;;;;;25.98;18.65;;;;;;;26.48;55.00;101780.19;5092201;28;20035;-67
2022/08/24 01:51:58;;;;;;;20.25;17.67;;;;;;;26.53;55.14;101773.75;5092512;28;20039;-67
2022/08/24 01:54:24;;;;;;;29.02;19.33;;;;;;;26.51;54.82;101776.84;5091646;28;20036;-67
2022/08/24 01:56:49;;;;;;;21.58;17.58;;;;;;;26.51;54.96;101779.59;5092023;28;20411;-67
2022/08/24 01:59:15;;;;;;;24.40;18.15;;;;;;;26.49;55.01;101776.31;5091228;28;20036;-67
2022/08/24 02:01:45;;;;;;;23.58;18.98;;;;;;;26.40;55.04;101780.91;5092102;28;20032;-67
2022/08/24 02:04:11;;;;;;;21.27;17.10;;;;;;;26.37;55.33;101778.78;5092463;28;20012;-68
2022/08/24 02:06:37;;;;;;;21.90;17.77;;;;;;;26.50;54.64;101774.34;5091625;28;20134;-67
2022/08/24 02:09:04;;;;;;;23.40;18.27;;;;;;;26.58;54.46;101777.22;5073382;28;20071;-67
2022/08/24 02:11:30;;;;;;;19.92;17.38;;;;;;;26.53;54.57;101782.03;5091868;28;20036;-67
2022/08/24 02:13:55;;;;;;;21.73;17.17;;;;;;;26.36;54.47;101781.84;5072603;28;20051;-68
2022/08/24 02:16:21;;;;;;;19.38;16.27;;;;;;;26.44;54.51;101779.16;5088464;28;20075;-68
2022/08/24 02:18:46;;;;;;;20.25;16.30;;;;;;;26.31;54.86;101776.44;5092061;28;20035;-66
2022/08/24 02:21:12;;;;;;;20.63;16.88;;;;;;;26.32;54.86;101784.38;5073253;28;20036;-66
2022/08/24 02:23:39;;;;;;;19.30;16.23;;;;;;;26.31;54.57;101781.94;5091490;28;20036;-66
2022/08/24 02:26:07;;;;;;;18.88;15.73;;;;;;;26.29;54.49;101786.94;5091873;28;20048;-66
2022/08/24 02:28:33;;;;;;;20.55;16.23;;;;;;;26.37;54.73;101783.47;5091239;28;20511;-67
2022/08/24 02:31:00;;;;;;;17.73;15.55;;;;;;;26.35;54.80;101789.31;5092036;28;20379;-67
2022/08/24 02:33:25;;;;;;;17.52;15.00;;;;;;;26.26;55.12;101791.13;5091716;28;20036;-68
2022/08/24 02:35:52;;;;;;;18.98;14.63;;;;;;;26.30;54.94;101794.13;5091516;28;20085;-67
2022/08/24 02:38:17;;;;;;;21.30;15.63;;;;;;;26.05;55.20;101787.94;5091011;28;20040;-67
2022/08/24 02:40:43;;;;;;;19.95;14.93;;;;;;;26.21;54.98;101791.25;5091421;28;20043;-69
2022/08/24 02:43:09;;;;;;;18.30;15.68;;;;;;;26.15;55.32;101791.66;5091932;28;20036;-68
2022/08/24 02:45:43;;;;;;;18.05;15.77;;;;;;;26.13;55.57;101794.72;5090568;28;20036;-68
2022/08/24 02:48:09;;;;;;;19.30;14.95;;;;;;;26.19;55.44;101787.97;5091290;28;20035;-68
2022/08/24 02:50:41;;;;;;;16.98;15.02;;;;;;;26.10;55.67;101787.88;5091171;28;20040;-67
2022/08/24 02:53:08;;;;;;;18.63;16.35;;;;;;;25.99;55.82;101786.41;5091000;28;20055;-67
2022/08/24 02:55:33;;;;;;;16.27;14.73;;;;;;;26.02;56.09;101788.53;5072645;28;20070;-73
2022/08/24 02:57:59;;;;;;;16.45;14.60;;;;;;;26.07;55.61;101785.72;5091637;28;20024;-73
2022/08/24 03:00:25;;;;;;;21.02;14.75;;;;;;;26.09;55.32;101789.00;5091210;28;20039;-74
2022/08/24 03:02:51;;;;;;;18.23;14.35;;;;;;;26.18;55.03;101782.78;5091231;28;20032;-73
2022/08/24 03:05:17;;;;;;;20.35;15.60;;;;;;;26.18;55.13;101780.81;5090977;28;20064;-73
2022/08/24 03:07:42;;;;;;;16.77;15.02;;;;;;;26.08;55.08;101784.59;5090727;28;20059;-73
2022/08/24 03:10:08;;;;;;;17.80;15.50;;;;;;;26.06;55.13;101781.34;5091406;28;20031;-73
2022/08/24 03:12:34;;;;;;;16.80;15.05;;;;;;;26.05;55.17;101789.88;5090956;28;20021;-73
2022/08/24 03:15:01;;;;;;;19.77;15.35;;;;;;;26.08;55.11;101787.34;5090552;28;20051;-73
2022/08/24 03:17:30;;;;;;;19.17;16.30;;;;;;;26.06;55.54;101786.84;5090892;28;20034;-73
2022/08/24 03:19:56;;;;;;;19.17;15.68;;;;;;;26.02;54.79;101790.50;5091184;28;20507;-74
2022/08/24 03:22:21;;;;;;;19.65;16.20;;;;;;;26.08;55.00;101794.81;5090781;28;20120;-71
2022/08/24 03:24:47;;;;;;;19.88;16.98;;;;;;;25.98;55.43;101798.53;5091463;28;20032;-73
2022/08/24 03:27:13;;;;;;;19.90;16.25;;;;;;;25.78;56.25;101796.19;5090790;28;20044;-73
2022/08/24 03:29:38;;;;;;;20.45;16.65;;;;;;;25.79;56.02;101803.31;5090827;28;20033;-73
2022/08/24 03:32:03;;;;;;;21.55;16.50;;;;;;;25.77;56.02;101796.47;5090628;28;20036;-74
2022/08/24 03:34:29;;;;;;;21.38;18.17;;;;;;;25.83;55.52;101793.31;5091111;28;20102;-73
2022/08/24 03:36:54;;;;;;;21.45;18.45;;;;;;;25.80;55.73;101785.69;5091208;28;20031;-74
2022/08/24 03:39:20;;;;;;;21.33;17.98;;;;;;;25.87;55.35;101782.50;5090321;28;20069;-73
2022/08/24 03:41:45;;;;;;;20.63;17.92;;;;;;;25.87;55.42;101791.59;5090723;28;20082;-73
2022/08/24 03:44:11;;;;;;;24.67;18.77;;;;;;;25.90;55.52;101788.25;5090424;28;20024;-73
2022/08/24 03:46:37;;;;;;;22.35;18.23;;;;;;;25.92;55.81;101782.44;5090237;28;20536;-73
2022/08/24 03:49:07;;;;;;;22.02;18.33;;;;;;;25.89;55.61;101791.28;5091300;28;20036;-73
2022/08/24 03:51:34;;;;;;;20.88;18.52;;;;;;;25.92;55.81;101793.44;5090622;28;20036;-72
2022/08/24 03:54:01;;;;;;;19.60;16.40;;;;;;;25.93;55.51;101790.38;5090016;28;20392;-73
2022/08/24 03:56:27;;;;;;;19.27;15.60;;;;;;;25.96;55.26;101794.47;5091389;28;20036;-73
2022/08/24 03:58:53;;;;;;;18.48;16.05;;;;;;;26.02;55.27;101794.06;5076202;28;20028;-73
2022/08/24 04:01:19;;;;;;;21.23;17.42;;;;;;;25.86;55.78;101798.25;5092938;28;20039;-74
2022/08/24 04:03:46;;;;;;;19.23;16.58;;;;;;;25.91;55.64;101789.88;5094938;28;20469;-73
2022/08/24 04:06:14;;;;;;;20.70;15.95;;;;;;;25.93;55.24;101792.31;5095054;28;20036;-74
2022/08/24 04:08:40;;;;;;;20.27;15.48;;;;;;;25.87;55.44;101793.53;5094403;28;20115;-73
2022/08/24 04:11:10;;;;;;;19.30;15.88;;;;;;;25.91;55.17;101797.31;5094879;28;20381;-74
2022/08/24 04:13:36;;;;;;;18.05;15.27;;;;;;;25.83;55.12;101801.59;5094640;28;20042;-73
2022/08/24 04:16:08;;;;;;;24.35;15.57;;;;;;;25.67;55.63;101802.97;5094920;28;20032;-73
2022/08/24 04:18:34;;;;;;;20.00;16.50;;;;;;;25.70;55.40;101796.88;5095130;28;20510;-73
2022/08/24 04:21:00;;;;;;;17.75;15.68;;;;;;;25.57;55.91;101800.41;5095049;28;20048;-67
2022/08/24 04:23:25;;;;;;;18.42;15.25;;;;;;;25.54;56.07;101809.28;5094454;28;20036;-67
2022/08/24 04:25:51;;;;;;;17.85;15.75;;;;;;;25.63;55.44;101810.22;5095068;28;20392;-67
2022/08/24 04:28:18;;;;;;;23.60;16.55;;;;;;;25.64;54.90;101808.28;5095299;28;20036;-67
2022/08/24 04:30:49;;;;;;;17.23;15.20;;;;;;;25.42;55.80;101811.69;5094465;28;20036;-66
2022/08/24 04:33:15;;;;;;;;;;;;;;;25.58;55.38;101812.25;5095407;28;20032;-68
2022/08/24 04:35:44;;;;;;;17.00;14.98;;;;;;;25.55;55.73;101819.16;5094354;28;19955;-66
2022/08/24 04:38:10;;;;;;;15.77;14.18;;;;;;;25.54;55.37;101816.72;5094663;28;20085;-68
2022/08/24 04:40:40;;;;;;;20.33;15.55;;;;;;;25.49;55.51;101814.88;5094534;28;20036;-66
2022/08/24 04:43:05;;;;;;;19.75;14.65;;;;;;;25.56;55.47;101823.56;5094922;28;20101;-68
2022/08/24 04:45:32;;;;;;;16.55;14.40;;;;;;;25.49;55.44;101817.63;5094457;28;20033;-68
2022/08/24 04:47:58;;;;;;;18.02;14.75;;;;;;;25.49;55.60;101825.06;5076414;28;20047;-68
2022/08/24 04:50:24;;;;;;;16.58;14.25;;;;;;;25.53;55.38;101826.09;5094473;28;20032;-67
2022/08/24 04:52:49;;;;;;;19.52;14.30;;;;;;;25.40;55.49;101830.44;5093457;28;20089;-68
2022/08/24 04:55:15;;;;;;;20.98;14.32;;;;;;;25.40;55.38;101835.94;5088244;28;20036;-67
2022/08/24 04:57:40;;;;;;;15.57;13.98;;;;;;;25.48;55.63;101831.69;5080967;28;20055;-68
2022/08/24 05:00:08;;;;;;;17.60;15.75;;;;;;;25.45;55.83;101841.38;5063820;28;20036;-67
2022/08/24 05:02:34;;;;;;;19.02;15.80;;;;;;;25.44;55.76;101838.91;5083587;28;20055;-67
2022/08/24 05:05:01;;;;;;;19.00;15.85;;;;;;;25.28;56.68;101841.88;5081021;28;20032;-66
2022/08/24 05:07:26;;;;;;;20.33;16.00;;;;;;;25.30;56.68;101833.31;5084741;28;20043;-67
2022/08/24 05:09:53;;;;;;;16.83;14.55;;;;;;;25.41;56.34;101834.00;5075606;28;20492;-67
2022/08/24 05:12:19;;;;;;;17.35;15.18;;;;;;;25.41;55.96;101840.34;5094151;28;20123;-67
2022/08/24 05:14:45;;;;;;;16.83;14.10;;;;;;;25.36;56.66;101845.06;5093273;28;20032;-67
2022/08/24 05:17:10;;;;;;;17.45;14.05;;;;;;;25.50;56.20;101843.22;5093493;28;20071;-66
2022/08/24 05:19:36;;;;;;;16.67;14.88;;;;;;;25.52;56.23;101850.06;5093857;28;20388;-67
2022/08/24 05:22:01;;;;;;;19.40;15.35;;;;;;;25.59;56.17;101849.69;5094129;28;20040;-68
2022/08/24 05:24:27;;;;;;;22.10;16.27;;;;;;;25.42;56.43;101850.22;5093268;28;20032;-68
2022/08/24 05:26:52;;;;;;;17.90;16.02;;;;;;;25.48;56.81;101850.94;5093636;28;20105;-67
2022/08/24 05:29:18;;;;;;;17.65;15.77;;;;;;;25.59;56.40;101853.22;5093551;28;20036;-69
2022/08/24 05:31:45;;;;;;;27.40;19.48;;;;;;;25.68;56.45;101850.63;5093124;28;20088;-67
2022/08/24 05:34:11;;;;;;;28.60;19.80;;;;;;;25.67;56.32;101854.50;5075052;28;20040;-68
2022/08/24 05:36:38;;;;;;;27.73;21.27;;;;;;;25.75;56.11;101854.59;5093627;28;20062;-67
2022/08/24 05:39:07;;;;;;;27.30;20.98;;;;;;;25.78;56.26;101865.03;5092820;28;20078;-67
2022/08/24 05:41:33;;;;;;;28.73;23.05;;;;;;;25.80;56.75;101864.72;5093227;28;20520;-67
2022/08/24 05:43:59;;;;;;;32.75;23.50;;;;;;;25.86;56.41;101864.34;5092970;28;20032;-67
2022/08/24 05:46:25;;;;;;;27.02;23.17;;;;;;;25.92;55.91;101860.38;5093282;28;20043;-67
2022/08/24 05:48:50;;;;;;;33.58;24.52;;;;;;;25.97;56.01;101862.22;5093820;28;20024;-67
2022/08/24 05:51:16;;;;;;;29.23;24.30;;;;;;;26.00;56.29;101862.41;5093097;28;20487;-68
2022/08/24 05:53:42;;;;;;;34.13;25.90;;;;;;;25.98;56.31;101853.63;5092616;28;20039;-68
2022/08/24 05:56:10;;;;;;;30.20;25.02;;;;;;;26.02;56.42;101859.38;5093175;28;20040;-69
2022/08/24 05:58:37;;;;;;;34.15;26.58;;;;;;;26.04;56.51;101851.63;5092747;28;20023;-67
2022/08/24 06:01:15;;;;;;;32.42;28.20;;;;;;;26.08;56.68;101858.19;5093277;28;20097;-68
2022/08/24 06:03:41;;;;;;;36.70;29.48;;;;;;;26.18;55.90;101862.69;5074687;28;20028;-66
2022/08/24 06:06:08;;;;;;;37.67;30.10;;;;;;;26.10;56.17;101861.47;5092875;28;20055;-64
2022/08/24 06:08:35;;;;;;;33.90;30.15;;;;;;;26.22;56.06;101872.78;5092609;28;20062;-64
2022/08/24 06:11:01;;;;;;;39.22;30.33;;;;;;;26.40;55.69;101868.31;5092965;28;20399;-62
2022/08/24 06:13:28;;;;;;;45.83;33.20;;;;;;;26.51;55.82;101875.25;5092259;28;20051;-63
2022/08/24 06:16:11;;;;;;;39.03;31.88;;;;;;;26.55;55.64;101868.84;5092818;28;20388;-63
2022/08/24 06:18:38;;;;;;;34.88;30.13;;;;;;;26.51;55.56;101876.09;5092231;28;20036;-63
2022/08/24 06:21:09;;;;;;;34.85;30.65;;;;;;;26.65;55.68;101873.31;5092137;28;20048;-62
2022/08/24 06:23:36;;;;;;;47.53;32.75;;;;;;;26.72;55.26;101873.75;5092443;28;20492;-63
2022/08/24 06:28:46;;;;;;;46.60;34.60;;;;;;;26.84;55.34;101872.09;5092053;28;20039;-63
2022/08/24 06:31:12;;;;;;;43.00;35.78;;;;;;;26.92;54.85;101874.13;5092308;28;20028;-63
2022/08/24 06:33:38;;;;;;;52.58;39.63;;;;;;;26.97;54.70;101883.44;5091612;28;20097;-64
2022/08/24 06:36:03;;;;;;;49.15;36.80;;;;;;;27.04;54.69;101881.88;5092006;28;20511;-66
2022/08/24 06:38:29;;;;;;;48.00;35.78;;;;;;;27.09;54.09;101884.50;5091517;28;20040;-63
2022/08/24 06:40:55;;;;;;;43.35;36.75;;;;;;;27.19;54.25;101880.69;5091489;28;20032;-63
2022/08/24 06:43:20;;;;;;;53.58;37.83;;;;;;;27.10;54.16;101877.88;5091247;28;20066;-63
2022/08/24 06:45:46;;;;;;;45.72;36.80;;;;;;;27.26;53.95;101889.38;5091955;28;20050;-63
2022/08/24 06:48:11;;;;;;;49.70;38.20;;;;;;;27.23;53.62;101893.56;5091286;28;20043;-64
2022/08/24 06:50:38;;;;;;;40.15;32.70;;;;;;;27.37;53.46;101891.63;5091270;28;20085;-64
2022/08/24 06:53:04;;;;;;;39.97;30.17;;;;;;;27.47;52.72;101890.56;5091237;28;20032;-64
2022/08/24 06:55:30;;;;;;;34.17;29.58;;;;;;;27.52;52.20;101890.44;5091324;28;20380;-65
2022/08/24 06:57:57;;;;;;;34.55;27.50;;;;;;;27.57;51.70;101893.06;5091642;28;20032;-65
2022/08/24 07:00:23;;;;;;;31.02;27.88;;;;;;;27.66;51.35;101883.72;5091182;28;20139;-64
2022/08/24 07:02:49;;;;;;;33.17;27.52;;;;;;;27.73;51.29;101892.38;5091755;28;20034;-68
2022/08/24 07:05:14;;;;;;;36.60;27.05;;;;;;;27.80;50.57;101890.00;5091720;28;20036;-68
2022/08/24 07:07:40;;;;;;;31.92;27.08;;;;;;;27.90;50.60;101893.63;5073095;28;20047;-68
2022/08/24 07:10:08;;;;;;;33.85;25.75;;;;;;;27.98;49.58;101892.88;5073301;28;20384;-68
2022/08/24 07:12:34;;;;;;;29.73;21.73;;;;;;;28.05;48.81;101893.28;5091855;28;20055;-68
2022/08/24 07:14:59;;;;;;;36.85;23.13;;;;;;;28.12;48.34;101896.38;5091169;28;20076;-68
2022/08/24 07:17:24;;;;;;;30.75;21.38;;;;;;;28.13;47.93;101890.53;5091440;28;20040;-68
2022/08/24 07:19:50;;;;;;;27.33;20.50;;;;;;;28.01;48.49;101898.59;5091452;28;20036;-68
2022/08/24 07:22:15;;;;;;;22.90;17.52;;;;;;;28.12;47.44;101899.97;5092214;28;20047;-68
2022/08/24 07:24:41;;;;;;;29.15;18.55;;;;;;;28.27;46.74;101907.03;5091486;28;20534;-68
2022/08/24 07:27:06;;;;;;;24.08;15.90;;;;;;;28.46;46.41;101907.63;5091868;28;20032;-68
2022/08/24 07:29:31;;;;;;;22.05;16.20;;;;;;;28.54;45.37;101901.28;5072840;28;20043;-67
2022/08/24 07:31:57;;;;;;;24.45;17.80;;;;;;;28.62;46.35;101906.88;5076469;28;20458;-69
2022/08/24 07:34:23;;;;;;;20.05;15.88;;;;;;;28.60;46.06;101898.09;5095749;28;20097;-67
2022/08/24 07:36:49;;;;;;;22.40;17.15;;;;;;;28.69;45.76;101897.31;5096159;28;20510;-70
2022/08/24 07:39:15;;;;;;;25.92;15.80;;;;;;;28.84;45.77;101905.97;5095386;28;20024;-68
2022/08/24 07:41:42;;;;;;;23.52;13.60;;;;;;;28.80;44.72;101904.16;5095651;28;20036;-68
2022/08/24 07:44:09;;;;;;;15.18;13.00;;;;;;;28.80;44.86;101904.16;5095272;28;20407;-68
2022/08/24 07:46:36;;;;;;;18.63;12.88;;;;;;;29.12;44.16;101903.75;5095615;28;20047;-68
2022/08/24 07:49:02;;;;;;;16.73;14.05;;;;;;;29.00;44.47;101909.09;5096039;28;20395;-68
2022/08/24 07:51:27;;;;;;;18.80;14.73;;;;;;;29.08;44.89;101905.53;5076995;28;20043;-68
2022/08/24 07:53:53;;;;;;;16.25;13.38;;;;;;;29.29;44.32;101906.56;5095399;28;20403;-68
2022/08/24 07:56:18;;;;;;;19.77;12.35;;;;;;;29.20;43.91;101914.06;5095545;28;20041;-68
2022/08/24 07:58:44;;;;;;;18.30;12.30;;;;;;;28.92;45.15;101909.91;5095135;28;20093;-69
2022/08/24 08:01:10;;;;;;;18.38;12.40;;;;;;;29.30;44.63;101910.97;5095744;28;20031;-69
2022/08/24 08:03:36;;;;;;;18.77;11.52;;;;;;;29.46;44.15;101909.34;5095193;28;20032;-68
2022/08/24 08:06:05;;;;;;;17.75;11.63;;;;;;;29.37;44.17;101908.50;5095282;28;20028;-69
2022/08/24 08:08:34;;;;;;;17.43;11.63;;;;;;;29.50;43.77;101911.13;5077252;28;20515;-69
2022/08/24 08:11:01;;;;;;;18.52;12.95;;;;;;;29.92;42.67;101909.47;5095157;28;20452;-67
2022/08/24 08:13:28;;;;;;;18.13;10.07;;;;;;;30.03;43.09;101913.53;5094617;28;20082;-68
2022/08/24 08:15:54;;;;;;;13.00;8.80;;;;;;;30.14;42.71;101917.59;5095200;28;20382;-67
2022/08/24 08:18:19;;;;;;;15.95;9.02;;;;;;;30.17;42.63;101916.91;5094916;28;20048;-68
2022/08/24 08:20:46;;;;;;;19.20;11.30;;;;;;;30.29;42.70;101919.84;5094820;28;20377;-67
2022/08/24 08:25:57;;;;;;;16.45;9.38;;;;;;;30.35;42.28;101922.44;5094902;28;20092;-68
2022/08/24 08:28:23;;;;;;;12.93;8.20;;;;;;;30.53;42.31;101915.66;5094312;28;20036;-68
2022/08/24 08:30:49;;;;;;;16.88;8.60;;;;;;;30.68;42.05;101923.44;5095108;28;20032;-68
2022/08/24 08:33:15;;;;;;;17.90;8.13;;;;;;;30.64;42.41;101923.31;5094811;28;20514;-68
2022/08/24 08:35:41;;;;;;;11.73;8.20;;;;;;;30.79;42.31;101927.44;5094537;28;20111;-68
2022/08/24 08:38:07;;;;;;;17.42;9.18;;;;;;;30.87;41.73;101923.84;5094680;28;20032;-68
2022/08/24 08:40:46;;;;;;;15.07;8.50;;;;;;;30.95;41.94;101926.59;5094519;28;20395;-68
2022/08/24 08:43:30;;;;;;;15.35;7.18;;;;;;;31.18;41.24;101927.91;5094137;28;20016;-68
2022/08/24 08:46:22;;;;;;;15.25;7.57;;;;;;;31.35;40.74;101926.94;5094353;28;20071;-68
2022/08/24 08:49:25;;;;;;;10.52;6.05;;;;;;;31.37;40.99;101930.19;4992029;28;20396;-68
2022/08/24 08:51:56;;;;;;;13.95;7.28;;;;;;;31.54;40.01;101927.31;4992373;28;20042;-68
2022/08/24 08:54:30;;;;;;;12.63;6.53;;;;;;;31.48;40.13;101925.06;4988878;28;20118;-68
2022/08/24 08:57:13;;;;;;;12.02;7.30;;;;;;;31.58;40.23;101930.22;4983505;28;20771;-68
2022/08/24 08:59:57;;;;;;;11.30;6.50;;;;;;;31.48;40.11;101936.19;4982689;28;20034;-68
2022/08/24 09:02:43;;;;;;;11.05;6.70;;;;;;;31.65;40.08;101928.53;4982881;28;20039;-68
2022/08/24 09:05:27;;;;;;;13.75;6.63;;;;;;;31.84;40.10;101939.94;4981689;28;20035;-68
2022/08/24 09:08:16;;;;;;;12.05;6.63;;;;;;;32.01;39.67;101927.88;4981194;28;20697;-68
2022/08/24 09:11:04;;;;;;;9.57;5.80;;;;;;;32.16;39.79;101929.19;4980655;28;20093;-68
2022/08/24 09:13:42;;;;;;;10.82;4.75;;;;;;;32.31;39.29;101937.69;4981060;28;20043;-72
2022/08/24 09:16:15;;;;;;;5.50;3.72;;;;;;;32.42;38.79;101936.06;4984444;28;20034;-73
2022/08/24 09:18:58;;;;;;;7.30;4.90;;;;;;;32.33;38.02;101935.38;4982186;28;20038;-74
2022/08/24 09:21:35;;;;;;;7.65;4.93;;;;;;;32.38;38.43;101935.13;4982884;28;20039;-73
2022/08/24 09:24:19;;;;;;;10.07;5.40;;;;;;;32.57;38.28;101929.84;4980833;28;20043;-74
2022/08/24 09:26:55;;;;;;;8.25;4.68;;;;;;;32.82;37.37;101931.50;5065915;28;20032;-73
2022/08/24 09:29:46;;;;;;;11.10;5.63;;;;;;;32.92;37.78;101927.41;5072478;28;20036;-75
2022/08/24 09:32:34;;;;;;;12.27;5.90;;;;;;;33.07;38.21;101937.88;5053952;28;20042;-73
2022/08/24 09:35:13;;;;;;;13.68;6.68;;;;;;;33.36;37.91;101940.34;5062401;28;20062;-74
2022/08/24 09:37:59;;;;;;;11.53;5.03;;;;;;;33.27;36.70;101933.28;5085859;28;20040;-74
2022/08/24 09:40:37;;;;;;;6.32;3.28;;;;;;;33.24;36.32;101929.22;5077526;28;20101;-73
2022/08/24 09:43:41;;;;;;;8.15;5.00;;;;;;;33.13;36.54;101927.28;5065186;28;20052;-74
2022/08/24 09:46:30;;;;;;;8.18;3.22;;;;;;;33.22;36.32;101927.97;5082692;28;20081;-73
2022/08/24 09:49:23;;;;;;;6.93;3.50;;;;;;;33.59;35.42;101927.53;5081587;28;20035;-73
2022/08/24 09:52:05;;;;;;;5.20;3.10;;;;;;;33.55;35.33;101928.59;5077190;28;20036;-73
2022/08/24 09:55:08;;;;;;;5.68;3.50;;;;;;;33.73;35.07;101926.31;5077428;28;20123;-74
2022/08/24 09:57:47;;;;;;;7.15;3.08;;;;;;;33.71;35.83;101923.06;5081064;28;20128;-75
2022/08/24 10:00:29;;;;;;;10.17;3.43;;;;;;;33.57;36.14;101923.50;5081722;28;20717;-67
2022/08/24 10:03:07;;;;;;;5.47;2.60;;;;;;;33.96;35.17;101924.56;5082738;28;20070;-65
2022/08/24 10:05:53;;;;;;;18.67;4.03;;;;;;;33.23;35.13;101927.63;5083129;28;20025;-64
2022/08/24 10:08:25;;;;;;;5.88;2.95;;;;;;;33.66;35.00;101924.13;5081829;28;20114;-65
2022/08/24 10:11:05;;;;;;;7.28;3.05;;;;;;;33.88;34.78;101918.00;5080415;28;20660;-67
2022/08/24 10:14:00;;;;;;;5.88;2.47;;;;;;;34.25;34.36;101913.03;5072206;28;20049;-65
2022/08/24 10:16:48;;;;;;;7.50;2.97;;;;;;;34.41;33.63;101903.50;5065888;28;20072;-66
2022/08/24 10:19:22;;;;;;;5.72;2.88;;;;;;;34.67;33.90;101910.53;5085645;28;20349;-66
2022/08/24 10:22:01;;;;;;;5.85;2.78;;;;;;;34.50;33.15;101906.94;5073560;28;20040;-64
2022/08/24 10:24:46;;;;;;;5.63;2.53;;;;;;;34.67;33.48;101900.16;5082714;28;20032;-65
2022/08/24 10:27:27;;;;;;;4.57;2.00;;;;;;;35.08;32.90;101899.56;5072972;28;20568;-73
2022/08/24 10:30:37;;;;;;;4.43;2.33;;;;;;;35.30;32.84;101893.22;5092101;28;20602;-74
2022/08/24 10:33:27;;;;;;;4.30;2.20;;;;;;;35.04;32.64;101901.47;5088713;28;20578;-73
2022/08/24 10:36:25;;;;;;;5.45;2.10;;;;;;;35.24;33.29;101891.91;5082768;28;20073;-73
2022/08/24 10:43:32;;;;;;;2.47;1.70;;;;;;;35.72;31.31;101901.72;5080378;28;20047;-73
2022/08/24 10:45:02;;;;;;;4.75;1.92;;;;;;;36.18;30.87;101891.41;5082462;28;20064;-75
2022/08/24 10:47:29;;;;;;;4.72;1.80;;;;;;;35.94;30.67;101900.16;5079934;28;20032;-73
2022/08/24 10:50:10;;;;;;;4.20;1.52;;;;;;;36.05;30.41;101887.19;5080968;28;20034;-74
2022/08/24 10:52:36;;;;;;;6.25;1.45;;;;;;;36.45;30.10;101884.69;5079622;28;20098;-75
2022/08/24 10:55:27;;;;;;;4.32;1.50;;;;;;;36.23;29.85;101882.69;5080406;28;20074;-73
2022/08/24 10:58:28;;;;;;;10.20;1.52;;;;;;;36.23;29.73;101887.50;5080329;28;20044;-64
2022/08/24 11:00:54;;;;;;;2.40;1.20;;;;;;;36.35;29.46;101890.88;5070857;28;20041;-65
2022/08/24 11:03:25;;;;;;;2.08;1.10;;;;;;;36.62;30.07;101886.94;5073076;28;20047;-66
2022/08/24 11:05:54;;;;;;;2.63;1.00;;;;;;;36.94;28.78;101891.06;5060735;28;20040;-65
2022/08/24 11:08:27;;;;;;;2.15;0.60;;;;;;;36.71;28.37;101881.09;5080841;28;20043;-65
2022/08/24 11:11:24;;;;;;;1.48;0.52;;;;;;;36.44;28.27;101880.28;5080467;28;20040;-65
2022/08/24 11:14:00;;;;;;;1.75;0.60;;;;;;;36.46;28.14;101886.31;5017220;28;20038;-65
2022/08/24 11:16:30;;;;;;;1.58;0.63;;;;;;;36.88;28.49;101884.19;5019688;28;20127;-65
2022/08/24 11:18:57;;;;;;;1.67;0.63;;;;;;;37.08;28.30;101878.44;5027958;28;20541;-65
2022/08/24 11:21:46;;;;;;;3.10;0.70;;;;;;;37.34;27.63;101882.03;5024321;28;20548;-65
2022/08/24 11:24:25;;;;;;;10.68;0.65;;;;;;;37.71;26.64;101885.66;5025949;28;20386;-65
2022/08/24 11:26:54;;;;;;;2.25;0.60;;;;;;;37.27;26.72;101881.91;5025967;28;20057;-65
2022/08/24 11:29:20;;;;;;;2.90;0.80;;;;;;;36.45;27.51;101876.28;5027072;28;20497;-66
2022/08/24 11:31:51;;;;;;;1.95;0.90;;;;;;;36.65;28.08;101877.00;5027053;28;20116;-66
2022/08/24 11:34:34;;;;;;;2.05;0.90;;;;;;;36.95;27.90;101877.88;5027924;28;20163;-65
2022/08/24 11:37:03;;;;;;;2.97;0.95;;;;;;;36.76;28.26;101872.34;5024572;28;20114;-64